Flight Track Log - Related Links

Times and Time Zones

All times are in EDT time to prevent confusion due to time zone crossing. See the SWA1496 flight status page for this flight to view local times or setup timezone preferences in your user account.

Time Position Orientation Groundspeed Altitude Reporting Facility
EDT Latitude Longitude Course Direction KTS MPH feet Rate Location/Type
Sat 10:35:16 AM 41.7833 -87.8333 277° West 223 257 2,700  Level Chicago TRACON
Sat 10:36:16 AM 41.7833 -87.9167 270° West 243 280 6,200 3,407 Climbing Chicago TRACON
Sat 10:36:37 AM 41.7758 -87.9500 253° West 236 272 7,300 3,542 Climbing Chicago Center
Sat 10:37:39 AM 41.7819 -88.0408 275° West 251 289 11,100 2,274 Climbing Chicago Center
Sat 10:38:41 AM 41.8011 -88.1303 286° West 252 290 12,000 435 Climbing Chicago Center
Sat 10:39:43 AM 41.8167 -88.2194 283° West 250 288 12,000 1,171 Level Chicago Center
Sat 10:40:00 AM 41.8680 -88.5973 277° West  Level FlightAware Approximate
Sat 10:40:44 AM 41.8444 -88.2983 295° West 260 299 14,400  Level Chicago Center
Sat 10:41:46 AM 41.9089 -88.3789 317° Northwest 264 304 17,000 2,419 Climbing Chicago Center
Sat 10:42:48 AM 41.9719 -88.4556 318° Northwest 298 343 19,400 2,177 Climbing Chicago Center
Sat 10:43:50 AM 42.0389 -88.5386 317° Northwest 321 369 21,500 2,000 Climbing Chicago Center
Sat 10:44:51 AM 42.0900 -88.6414 304° West 341 392 23,500 1,902 Climbing Chicago Center
Sat 10:45:53 AM 42.0972 -88.7711 274° West 350 403 25,400 1,790 Climbing Chicago Center
Sat 10:46:55 AM 42.1053 -88.9189 274° West 364 419 27,200 1,645 Climbing Chicago Center
Sat 10:47:57 AM 42.1169 -89.0581 276° West 372 428 28,800 1,659 Climbing Chicago Center
Sat 10:48:58 AM 42.1275 -89.1983 276° West 376 433 30,600 1,659 Climbing Chicago Center
Sat 10:50:00 AM 42.1400 -89.3650 276° West 380 437 32,200 1,403 Climbing Chicago Center
Sat 10:51:02 AM 42.1519 -89.5086 276° West 383 441 33,500 1,268 Climbing Chicago Center
Sat 10:52:03 AM 42.1633 -89.6550 276° West 391 450 34,800 1,171 Climbing Chicago Center
Sat 10:53:05 AM 42.1731 -89.7967 275° West 383 441 35,900 581 Climbing Chicago Center
Sat 10:54:07 AM 42.1842 -89.9456 276° West 387 445 36,000 49 Climbing Chicago Center
Sat 10:55:08 AM 42.1942 -90.0889 275° West 387 445 36,000  Level Chicago Center
Sat 10:56:10 AM 42.2039 -90.2331 275° West 388 447 36,000  Level Chicago Center
Sat 10:57:12 AM 42.2139 -90.3756 275° West 385 443 36,000  Level Chicago Center
Sat 10:58:13 AM 42.2233 -90.5172 275° West 383 441 36,000  Level Chicago Center
Sat 10:59:15 AM 42.2342 -90.6842 275° West 376 433 36,000  Level Chicago Center
Sat 11:00:17 AM 42.2436 -90.8253 275° West 380 437 36,000  Level Chicago Center
Sat 11:01:18 AM 42.2528 -90.9667 275° West 380 437 36,000  Level Chicago Center
Sat 11:02:20 AM 42.2603 -91.1100 274° West 383 441 36,000  Level Chicago Center
Sat 11:03:22 AM 42.2689 -91.2517 275° West 380 437 36,000  Level Chicago Center
Sat 11:04:24 AM 42.2769 -91.3925 274° West 379 436 36,000  Level Chicago Center
Sat 11:05:25 AM 42.2853 -91.5353 275° West 382 440 36,000  Level Chicago Center
Sat 11:06:27 AM 42.2953 -91.7047 275° West 379 436 36,000  Level Chicago Center
Sat 11:07:29 AM 42.3031 -91.8475 274° West 382 440 36,000  Level Chicago Center
Sat 11:08:30 AM 42.3108 -91.9906 274° West 381 438 36,000  Level Chicago Center
Sat 11:09:32 AM 42.3183 -92.1358 274° West 386 444 36,000  Level Chicago Center
Sat 11:10:21 AM 42.3244 -92.2517 274° West 385 443 36,000  Level Minneapolis Center
Sat 11:11:23 AM 42.3303 -92.3942 273° West 383 441 36,000  Level Minneapolis Center
Sat 11:12:24 AM 42.3378 -92.5364 274° West 381 438 36,000  Level Minneapolis Center
Sat 11:13:26 AM 42.3450 -92.6792 274° West 382 440 36,000  Level Minneapolis Center
Sat 11:14:27 AM 42.3525 -92.8475 274° West 378 435 36,000  Level Minneapolis Center
Sat 11:15:29 AM 42.3586 -92.9900 273° West 381 438 36,000 488 Level Minneapolis Center
Sat 11:16:30 AM 42.3656 -93.1319 274° West 381 438 37,000 829 Climbing Minneapolis Center
Sat 11:17:32 AM 42.3725 -93.2747 274° West 383 441 37,700 488 Climbing Minneapolis Center
Sat 11:18:33 AM 42.3772 -93.4211 273° West 391 450 38,000 148 Climbing Minneapolis Center
Sat 11:19:34 AM 42.3844 -93.5717 274° West 400 460 38,000  Level Minneapolis Center
Sat 11:20:36 AM 42.3894 -93.7192 273° West 397 457 38,000  Level Minneapolis Center
Sat 11:21:37 AM 42.3969 -93.8975 273° West 398 458 38,000  Level Minneapolis Center
Sat 11:22:39 AM 42.4014 -94.0439 272° West 394 453 38,000  Level Minneapolis Center
Sat 11:23:40 AM 42.4067 -94.1925 273° West 398 458 38,000  Level Minneapolis Center
Sat 11:24:42 AM 42.4111 -94.3342 272° West 392 451 38,000  Level Minneapolis Center
Sat 11:25:43 AM 42.4167 -94.4814 273° West 392 451 38,000  Level Minneapolis Center
Sat 11:26:45 AM 42.4214 -94.6300 273° West 394 453 38,000  Level Minneapolis Center
Sat 11:27:46 AM 42.4264 -94.8075 272° West 394 453 38,000  Level Minneapolis Center
Sat 11:28:48 AM 42.4308 -94.9553 272° West 394 453 38,000  Level Minneapolis Center
Sat 11:29:49 AM 42.4333 -95.1014 271° West 392 451 38,000  Level Minneapolis Center
Sat 11:30:51 AM 42.4381 -95.2486 273° West 391 450 38,000  Level Minneapolis Center
Sat 11:31:52 AM 42.4408 -95.3961 272° West 393 452 38,000  Level Minneapolis Center
Sat 11:32:53 AM 42.4450 -95.5442 272° West 394 453 38,000  Level Minneapolis Center
Sat 11:33:55 AM 42.4478 -95.6947 271° West 397 457 38,000  Level Minneapolis Center
Sat 11:34:56 AM 42.4503 -95.8472 271° West 401 461 38,000  Level Minneapolis Center
Sat 11:35:58 AM 42.4536 -96.0286 271° West 404 465 38,000  Level Minneapolis Center
Sat 11:36:59 AM 42.4564 -96.1797 271° West 403 464 38,000  Level Minneapolis Center
Sat 11:38:02 AM 42.4592 -96.3303 271° West 402 463 38,000  Level Minneapolis Center
Sat 11:39:03 AM 42.4614 -96.4811 271° West 402 463 38,000  Level Minneapolis Center
Sat 11:40:05 AM 42.4625 -96.6292 271° West 397 457 38,000  Level Minneapolis Center
Sat 11:41:06 AM 42.4647 -96.7756 271° West 392 451 38,000  Level Minneapolis Center
Sat 11:42:08 AM 42.4667 -96.9244 271° West 394 453 38,000  Level Minneapolis Center
Sat 11:43:09 AM 42.4681 -97.1017 271° West 395 455 38,000  Level Minneapolis Center
Sat 11:44:11 AM 42.4686 -97.2514 270° West 398 458 38,000  Level Minneapolis Center
Sat 11:45:12 AM 42.4694 -97.4000 270° West 397 457 38,000  Level Minneapolis Center
Sat 11:46:14 AM 42.4703 -97.5483 270° West 396 456 38,000  Level Minneapolis Center
Sat 11:47:15 AM 42.4725 -97.6986 271° West 400 460 38,000  Level Minneapolis Center
Sat 11:48:17 AM 42.4714 -97.8586 270° West 398 458 38,000  Level Minneapolis Center
Sat 11:49:19 AM 42.4714 -98.0094 270° West 402 463 38,000  Level Minneapolis Center
Sat 11:50:20 AM 42.4714 -98.1603 270° West 402 463 38,000  Level Minneapolis Center
Sat 11:51:22 AM 42.4711 -98.3125 270° West 404 465 38,000  Level Minneapolis Center
Sat 11:52:23 AM 42.4711 -98.4650 270° West 406 467 38,000  Level Minneapolis Center
Sat 11:53:25 AM 42.4714 -98.6456 270° West 402 463 38,000  Level Minneapolis Center
Sat 11:54:26 AM 42.4514 -98.7925 260° West 398 458 38,000  Level Minneapolis Center
Sat 11:55:28 AM 42.4253 -98.9383 256° West 399 459 38,000  Level Minneapolis Center
Sat 11:56:29 AM 42.3992 -99.0831 256° West 398 458 38,000  Level Minneapolis Center
Sat 11:57:31 AM 42.3739 -99.2286 257° West 398 458 38,000  Level Minneapolis Center
Sat 11:58:32 AM 42.3472 -99.3728 256° West 398 458 38,000  Level Minneapolis Center
Sat 11:59:19 AM 42.3247 -99.4906 256° West 399 459 38,000  Level Denver Center
Sat 12:00:21 PM 42.2978 -99.6369 256° West 400 460 38,000  Level Denver Center
Sat 12:01:22 PM 42.2700 -99.7869 256° West 400 460 38,000  Level Denver Center
Sat 12:02:24 PM 42.2386 -99.9511 256° West 403 464 38,000  Level Denver Center
Sat 12:03:26 PM 42.2119 -100.0903 256° West 402 463 38,000  Level Denver Center
Sat 12:04:28 PM 42.1811 -100.2558 256° West 408 470 38,000  Level Denver Center
Sat 12:05:29 PM 42.1536 -100.3944 255° West 404 465 38,000  Level Denver Center
Sat 12:06:31 PM 42.1225 -100.5572 256° West 403 464 38,000  Level Denver Center
Sat 12:07:33 PM 42.0947 -100.6967 255° West 403 464 38,000  Level Denver Center
Sat 12:08:35 PM 42.0633 -100.8572 255° West 400 460 38,000  Level Denver Center
Sat 12:09:36 PM 42.0347 -100.9944 254° West 400 460 38,000  Level Denver Center
Sat 12:10:38 PM 42.0078 -101.1322 255° West 400 460 38,000  Level Denver Center
Sat 12:11:40 PM 41.9761 -101.2933 255° West 400 460 38,000  Level Denver Center
Sat 12:12:42 PM 41.9481 -101.4314 255° West 401 461 38,000  Level Denver Center
Sat 12:13:43 PM 41.9153 -101.5925 255° West 403 464 38,000  Level Denver Center
Sat 12:14:45 PM 41.8867 -101.7289 254° West 400 460 38,000  Level Denver Center
Sat 12:15:47 PM 41.8539 -101.8897 255° West 402 463 38,000  Level Denver Center
Sat 12:16:49 PM 41.8244 -102.0272 254° West 401 461 38,000  Level Denver Center
Sat 12:17:51 PM 41.7903 -102.1889 254° West 405 466 38,000  Level Denver Center
Sat 12:18:53 PM 41.7608 -102.3239 254° West 405 466 38,000  Level Denver Center
Sat 12:19:54 PM 41.7261 -102.4897 254° West 408 470 38,000  Level Denver Center
Sat 12:20:56 PM 41.6967 -102.6281 254° West 410 472 38,000  Level Denver Center
Sat 12:21:58 PM 41.6611 -102.7914 254° West 409 471 38,000  Level Denver Center
Sat 12:23:00 PM 41.6319 -102.9300 254° West 405 466 38,000  Level Denver Center
Sat 12:24:02 PM 41.6008 -103.0689 253° West 408 470 38,000  Level Denver Center
Sat 12:25:04 PM 41.5647 -103.2306 253° West 408 470 38,000  Level Denver Center
Sat 12:26:06 PM 41.5350 -103.3681 254° West 404 465 38,000  Level Denver Center
Sat 12:27:08 PM 41.4986 -103.5300 253° West 406 467 38,000  Level Denver Center
Sat 12:28:10 PM 41.4667 -103.6661 253° West 404 465 38,000  Level Denver Center
Sat 12:29:12 PM 41.4308 -103.8253 253° West 404 465 38,000  Level Denver Center
Sat 12:30:14 PM 41.3992 -103.9664 253° West 409 471 38,000  Level Denver Center
Sat 12:31:16 PM 41.3619 -104.1281 253° West 409 471 38,000  Level Denver Center
Sat 12:32:18 PM 41.3289 -104.2689 253° West 412 474 38,000  Level Denver Center
Sat 12:33:20 PM 41.2961 -104.4106 253° West 418 481 38,000  Level Denver Center
Sat 12:34:22 PM 41.2583 -104.5753 253° West 417 480 38,000  Level Denver Center
Sat 12:35:24 PM 41.2242 -104.7139 252° West 414 476 38,000  Level Denver Center
Sat 12:36:26 PM 41.1919 -104.8775 255° West 410 472 38,000  Level Denver Center
Sat 12:37:28 PM 41.1678 -105.0200 257° West 412 474 38,000  Level Denver Center
Sat 12:38:30 PM 41.1381 -105.1850 257° West 410 472 38,000  Level Denver Center
Sat 12:39:32 PM 41.1144 -105.3269 258° West 410 472 38,000  Level Denver Center
Sat 12:40:34 PM 41.0842 -105.4911 256° West 411 473 38,000  Level Denver Center
Sat 12:41:36 PM 41.0589 -105.6333 257° West 413 475 38,000  Level Denver Center
Sat 12:42:38 PM 41.0281 -105.7994 256° West 416 479 38,000  Level Denver Center
Sat 12:43:40 PM 41.0031 -105.9350 256° West 416 479 38,000  Level Denver Center
Sat 12:44:42 PM 40.9756 -106.0853 256° West 417 480 38,000  Level Denver Center
Sat 12:45:44 PM 40.9458 -106.2528 257° West 416 479 38,000  Level Denver Center
Sat 12:46:46 PM 40.9178 -106.3950 255° West 417 480 38,000  Level Denver Center
Sat 12:47:48 PM 40.8878 -106.5603 257° West 414 476 38,000  Level Denver Center
Sat 12:48:50 PM 40.8592 -106.7031 255° West 419 482 38,000  Level Denver Center
Sat 12:49:52 PM 40.8283 -106.8686 256° West 418 481 38,000  Level Denver Center
Sat 12:50:54 PM 40.8011 -107.0103 256° West 416 479 38,000  Level Denver Center
Sat 12:51:57 PM 40.7692 -107.1742 256° West 413 475 38,000  Level Denver Center
Sat 12:52:59 PM 40.7422 -107.3133 256° West 413 475 38,000  Level Denver Center
Sat 12:54:01 PM 40.7094 -107.4767 255° West 414 476 38,000  Level Denver Center
Sat 12:55:03 PM 40.6817 -107.6161 255° West 412 474 38,000  Level Denver Center
Sat 12:56:05 PM 40.6500 -107.7800 256° West 413 475 38,000  Level Denver Center
Sat 12:57:07 PM 40.6211 -107.9219 255° West 419 482 38,000  Level Denver Center
Sat 12:58:09 PM 40.5875 -108.0853 255° West 418 481 38,000  Level Denver Center
Sat 12:59:15 PM 40.5572 -108.2308 255° West 417 480 38,000  Level Salt Lake Center
Sat 01:00:16 PM 40.5242 -108.3953 255° West 417 480 38,000  Level Salt Lake Center
Sat 01:01:15 PM 40.4953 -108.5314 254° West 420 483 38,000  Level Denver Center
Sat 01:02:16 PM 40.4600 -108.6958 254° West 421 484 38,000  Level Denver Center
Sat 01:03:18 PM 40.4303 -108.8392 255° West 425 489 38,000  Level Denver Center
Sat 01:04:21 PM 40.3950 -109.0044 254° West 423 487 38,000  Level Salt Lake Center
Sat 01:05:23 PM 40.3644 -109.1475 254° West 425 489 38,000  Level Salt Lake Center
Sat 01:06:24 PM 40.3344 -109.2894 255° West 424 488 38,000  Level Salt Lake Center
Sat 01:07:25 PM 40.2983 -109.4533 254° West 423 487 38,000  Level Salt Lake Center
Sat 01:08:27 PM 40.2681 -109.5933 254° West 419 482 38,000  Level Salt Lake Center
Sat 01:09:28 PM 40.2319 -109.7567 254° West 419 482 38,000  Level Salt Lake Center
Sat 01:10:29 PM 40.2014 -109.8950 254° West 416 479 38,000  Level Salt Lake Center
Sat 01:11:30 PM 40.1700 -110.0308 253° West 411 473 38,000  Level Salt Lake Center
Sat 01:12:32 PM 40.1303 -110.1872 252° West 407 468 38,000  Level Salt Lake Center
Sat 01:13:33 PM 40.0842 -110.3211 246° West 419 482 38,000  Level Salt Lake Center
Sat 01:14:34 PM 40.0292 -110.4744 245° Southwest 418 481 38,000  Level Salt Lake Center
Sat 01:15:35 PM 39.9842 -110.6089 246° West 423 487 38,000  Level Salt Lake Center
Sat 01:16:36 PM 39.9383 -110.7397 245° Southwest 418 481 38,000  Level Salt Lake Center
Sat 01:17:38 PM 39.8833 -110.8956 245° Southwest 423 487 38,000  Level Salt Lake Center
Sat 01:18:39 PM 39.8386 -111.0283 246° West 421 484 38,000  Level Salt Lake Center
Sat 01:19:40 PM 39.7831 -111.1839 245° Southwest 424 488 38,000  Level Salt Lake Center
Sat 01:20:41 PM 39.7358 -111.3175 245° Southwest 426 490 38,000  Level Salt Lake Center
Sat 01:21:43 PM 39.6864 -111.4572 245° Southwest 426 490 38,000  Level Salt Lake Center
Sat 01:22:44 PM 39.6369 -111.5939 245° Southwest 422 486 38,000  Level Salt Lake Center
Sat 01:23:45 PM 39.5872 -111.7308 245° Southwest 421 484 38,000  Level Salt Lake Center
Sat 01:24:46 PM 39.5369 -111.8678 245° Southwest 421 484 38,000  Level Salt Lake Center
Sat 01:25:48 PM 39.4881 -112.0053 245° Southwest 420 483 38,000  Level Salt Lake Center
Sat 01:26:49 PM 39.4381 -112.1406 244° Southwest 419 482 38,000  Level Salt Lake Center
Sat 01:27:50 PM 39.3781 -112.3017 244° Southwest 416 479 38,000  Level Salt Lake Center
Sat 01:28:52 PM 39.3286 -112.4372 245° Southwest 417 480 38,000  Level Salt Lake Center
Sat 01:29:53 PM 39.2908 -112.5728 250° West 405 466 38,000  Level Salt Lake Center
Sat 01:30:54 PM 39.2669 -112.7019 257° West 402 463 38,000  Level Salt Lake Center
Sat 01:31:56 PM 39.2417 -112.8389 257° West 397 457 38,000  Level Salt Lake Center
Sat 01:32:57 PM 39.2111 -113.0056 257° West 398 458 38,000  Level Salt Lake Center
Sat 01:33:58 PM 39.1853 -113.1414 256° West 396 456 38,000  Level Salt Lake Center
Sat 01:35:00 PM 39.1603 -113.2769 257° West 393 452 38,000  Level Salt Lake Center
Sat 01:36:01 PM 39.1342 -113.4142 256° West 395 455 38,000  Level Salt Lake Center
Sat 01:37:03 PM 39.1092 -113.5467 256° West 387 445 38,000  Level Salt Lake Center
Sat 01:38:04 PM 39.0833 -113.6803 256° West 386 444 38,000  Level Salt Lake Center
Sat 01:39:06 PM 39.0581 -113.8136 256° West 387 445 38,000  Level Salt Lake Center
Sat 01:40:07 PM 39.0314 -113.9489 256° West 390 449 38,000  Level Salt Lake Center
Sat 01:41:09 PM 38.9997 -114.1119 256° West 393 452 38,000  Level Salt Lake Center
Sat 01:42:10 PM 38.9733 -114.2461 256° West 390 449 38,000  Level Salt Lake Center
Sat 01:43:12 PM 38.9461 -114.3814 256° West 393 452 38,000  Level Salt Lake Center
Sat 01:44:13 PM 38.9192 -114.5181 256° West 395 455 38,000  Level Salt Lake Center
Sat 01:45:15 PM 38.8917 -114.6536 255° West 395 455 38,000  Level Salt Lake Center
Sat 01:46:17 PM 38.8647 -114.7897 256° West 396 456 38,000  Level Salt Lake Center
Sat 01:47:18 PM 38.8364 -114.9253 255° West 395 455 38,000  Level Salt Lake Center
Sat 01:48:20 PM 38.8025 -115.0881 255° West 396 456 38,000  Level Salt Lake Center
Sat 01:49:22 PM 38.7719 -115.2278 254° West 404 465 38,000  Level Salt Lake Center
Sat 01:50:23 PM 38.7444 -115.3608 255° West 401 461 38,000  Level Salt Lake Center
Sat 01:51:25 PM 38.7175 -115.4928 255° West 392 451 38,000  Level Salt Lake Center
Sat 01:52:27 PM 38.6894 -115.6258 255° West 388 447 38,000  Level Salt Lake Center
Sat 01:53:28 PM 38.6617 -115.7581 255° West 387 445 38,000  Level Salt Lake Center
Sat 01:54:30 PM 38.6278 -115.9139 254° West 380 437 38,000  Level Salt Lake Center
Sat 01:55:32 PM 38.6008 -116.0450 255° West 382 440 38,000  Level Salt Lake Center
Sat 01:56:35 PM 38.5725 -116.1758 255° West 382 440 38,000  Level Oakland Center
Sat 01:57:36 PM 38.5456 -116.3072 255° West 383 441 38,000  Level Oakland Center
Sat 01:58:37 PM 38.5167 -116.4364 254° West 379 436 38,000  Level Salt Lake Center
Sat 01:59:39 PM 38.4878 -116.5636 254° West 376 433 38,000  Level Salt Lake Center
Sat 02:00:40 PM 38.4600 -116.6919 255° West 374 430 38,000  Level Oakland Center
Sat 02:01:41 PM 38.4325 -116.8186 255° West 372 428 38,000  Level Oakland Center
Sat 02:02:43 PM 38.3978 -116.9703 254° West 372 428 38,000  Level Oakland Center
Sat 02:03:44 PM 38.3694 -117.0972 254° West 375 432 38,000  Level Oakland Center
Sat 02:04:45 PM 38.3392 -117.2347 254° West 378 435 38,000  Level Oakland Center
Sat 02:05:47 PM 38.3183 -117.3639 258° West 372 428 38,000  Level Oakland Center
Sat 02:06:48 PM 38.3036 -117.4811 261° West 373 429 38,000  Level Oakland Center
Sat 02:07:49 PM 38.2872 -117.6122 261° West 377 434 38,000  Level Oakland Center
Sat 02:08:51 PM 38.2714 -117.7433 261° West 378 435 38,000  Level Oakland Center
Sat 02:09:52 PM 38.2508 -117.9019 261° West 380 437 38,000  Level Oakland Center
Sat 02:10:53 PM 38.2342 -118.0328 261° West 378 435 38,000  Level Oakland Center
Sat 02:11:55 PM 38.2183 -118.1558 261° West 378 435 38,000  Level Oakland Center
Sat 02:12:56 PM 38.2019 -118.2889 261° West 381 438 38,000  Level Oakland Center
Sat 02:13:57 PM 38.1844 -118.4203 260° West 379 436 38,000  Level Oakland Center
Sat 02:14:59 PM 38.1669 -118.5539 261° West 383 441 38,000  Level Oakland Center
Sat 02:16:00 PM 38.1447 -118.7164 260° West 389 448 38,000  Level Oakland Center
Sat 02:17:01 PM 38.1300 -118.8297 261° West 382 440 38,000  Level Oakland Center
Sat 02:18:03 PM 38.1111 -118.9644 260° West 386 444 38,000  Level Oakland Center
Sat 02:19:04 PM 38.0906 -119.1261 261° West 388 447 38,000  Level Oakland Center
Sat 02:20:05 PM 38.0700 -119.2572 259° West 391 450 38,000 -49 Level Oakland Center
Sat 02:21:07 PM 38.0517 -119.3928 260° West 390 449 37,900 -537 Descending Oakland Center
Sat 02:22:08 PM 38.0347 -119.5267 261° West 385 443 36,900 -984 Descending Oakland Center
Sat 02:23:09 PM 38.0164 -119.6614 260° West 387 445 35,900 -934 Descending Oakland Center
Sat 02:24:10 PM 37.9958 -119.7994 259° West 395 455 35,000 -927 Descending Oakland Center
Sat 02:25:12 PM 37.9753 -119.9397 260° West 403 464 34,000 -1,366 Descending Oakland Center
Sat 02:26:13 PM 37.9531 -120.0797 259° West 405 466 32,200 -1,918 Descending Oakland Center
Sat 02:27:14 PM 37.9331 -120.2225 260° West 409 471 30,100 -2,000 Descending Oakland Center
Sat 02:28:16 PM 37.9106 -120.3614 258° West 403 464 28,100 -2,000 Descending Oakland Center
Sat 02:29:17 PM 37.8875 -120.5208 260° West 384 442 26,000 -1,869 Descending Oakland Center
Sat 02:30:18 PM 37.8672 -120.6514 259° West 378 435 24,300 -2,000 Descending Oakland Center
Sat 02:30:59 PM 37.8667 -120.7333 270° West 361 415 22,600 -2,495 Descending Northern Cal TRACON
Sat 02:31:59 PM 37.8500 -120.8667 261° West 353 406 20,100 -2,550 Descending Northern Cal TRACON
Sat 02:32:59 PM 37.8500 -120.9833 270° West 358 412 17,500 -2,650 Descending Northern Cal TRACON
Sat 02:33:59 PM 37.8333 -121.1167 261° West 361 415 14,800 -2,450 Descending Northern Cal TRACON
Sat 02:34:59 PM 37.8167 -121.2333 260° West 355 409 12,600 -1,450 Descending Northern Cal TRACON
Sat 02:35:59 PM 37.7667 -121.3333 238° Southwest 330 380 11,900 -789 Descending Northern Cal TRACON
Sat 02:36:53 PM 37.7333 -121.4333 247° West 302 348 11,100 -947 Descending Northern Cal TRACON
Sat 02:37:53 PM 37.7000 -121.5167 243° Southwest 293 337 10,100 -1,050 Descending Northern Cal TRACON
Sat 02:38:53 PM 37.6667 -121.6167 247° West 293 337 9,000 -1,250 Descending Northern Cal TRACON
Sat 02:39:53 PM 37.6500 -121.7167 258° West 288 331 7,600 -1,105 Descending Northern Cal TRACON
Sat 02:40:47 PM 37.6167 -121.8000 243° Southwest 280 322 6,900 -1,053 Descending Northern Cal TRACON
Sat 02:41:47 PM 37.5833 -121.8833 243° Southwest 285 328 5,600 -1,400 Descending Northern Cal TRACON
Sat 02:42:47 PM 37.6000 -121.9833 282° West 269 310 4,100 -1,350 Descending Northern Cal TRACON
Sat 02:43:47 PM 37.6167 -122.0667 284° West 224 258 2,900 -1,036 Descending Northern Cal TRACON
Sat 02:44:37 PM 37.6258 -122.1047 287° West 216 249 2,200 -750 Descending Oakland Center
Sat 02:45:39 PM 37.6522 -122.1414 312° West 166 191 1,500 -683 Descending Oakland Center
Sat 02:46:40 PM 37.6756 -122.1767 310° West 146 168 800 -689 Descending Oakland Center
Sat 02:47:41 PM 37.6994 -122.2117 311° West 137 158 100 -689 Descending Oakland Center
Sat 02:49:00 PM 37.7167 -122.2167 270° West  Level FlightAware Approximate
Sat 02:56:00 PM 37.7213 -122.2207 270° West  Level Estimated

Login

Don't have an account? Register now (free) for customized features, flight alerts, and more!